EGPF

Glasgow International Airport

Glasgow, United Kingdom
METAR EGPF 231450Z AUTO 07009KT 9999 NCD 17/08 Q1027
Observed Flight Rules
May-23 @ 14:50 UTC (12 minutes ago) Visual Flight Rules
Wind Visibility Clouds
70° at 9 knots 10,000+ meters
  • Clear skies
Temperatures Readings
Current 17°C / 63°F
Dewpoint 8°C / 46°F
Humidity 56%
Altimeter 30.32" Hg
Pressure 1027 hPa
Elevation 8
METAR EGPF 231450Z AUTO 07009KT 9999 NCD 17/08 Q1027
Observed Flight Rules
May-23 @ 14:50 UTC
(12 minutes ago)
VFR
Wind Visibility
70° at 9 knots 10,000+ meters
Clouds
  • Clear skies
Temperature Dewpoint
17°C / 63°F 8°C / 46°F
Humidity Altimeter Pressure
56% 30.32" Hg 1027 hPa